sensor_id;sensor_type;location;lat;lon;timestamp;P1;durP1;ratioP1;P2;durP2;ratioP2
47896;SDS011;39629;51.400;5.494;2023-09-30T00:00:00;2.85;;;1.30;;
47896;SDS011;39629;51.400;5.494;2023-09-30T00:05:11;3.65;;;1.52;;
47896;SDS011;39629;51.400;5.494;2023-09-30T00:10:16;4.22;;;1.80;;
47896;SDS011;39629;51.400;5.494;2023-09-30T00:15:19;6.75;;;2.08;;
47896;SDS011;39629;51.400;5.494;2023-09-30T00:20:21;4.00;;;1.70;;
47896;SDS011;39629;51.400;5.494;2023-09-30T00:25:25;3.58;;;1.50;;
47896;SDS011;39629;51.400;5.494;2023-09-30T00:30:28;7.13;;;1.60;;
47896;SDS011;39629;51.400;5.494;2023-09-30T00:35:31;4.50;;;1.50;;
47896;SDS011;39629;51.400;5.494;2023-09-30T00:40:35;6.30;;;2.07;;
47896;SDS011;39629;51.400;5.494;2023-09-30T00:45:37;3.00;;;1.37;;
47896;SDS011;39629;51.400;5.494;2023-09-30T00:50:41;4.17;;;2.13;;
47896;SDS011;39629;51.400;5.494;2023-09-30T00:55:45;4.05;;;2.08;;
47896;SDS011;39629;51.400;5.494;2023-09-30T01:00:48;3.53;;;1.48;;
47896;SDS011;39629;51.400;5.494;2023-09-30T01:05:50;4.55;;;1.90;;
47896;SDS011;39629;51.400;5.494;2023-09-30T01:10:54;7.05;;;2.60;;
47896;SDS011;39629;51.400;5.494;2023-09-30T01:15:57;7.43;;;2.60;;
47896;SDS011;39629;51.400;5.494;2023-09-30T01:21:00;5.32;;;2.45;;
47896;SDS011;39629;51.400;5.494;2023-09-30T01:26:08;8.95;;;2.75;;
47896;SDS011;39629;51.400;5.494;2023-09-30T01:31:13;7.28;;;2.85;;
47896;SDS011;39629;51.400;5.494;2023-09-30T01:36:16;5.53;;;2.40;;
47896;SDS011;39629;51.400;5.494;2023-09-30T01:41:19;7.47;;;2.88;;
47896;SDS011;39629;51.400;5.494;2023-09-30T01:46:22;5.30;;;2.85;;
47896;SDS011;39629;51.400;5.494;2023-09-30T01:51:25;4.95;;;2.80;;
47896;SDS011;39629;51.400;5.494;2023-09-30T01:56:29;5.75;;;2.80;;
47896;SDS011;39629;51.400;5.494;2023-09-30T02:06:34;8.93;;;3.28;;
47896;SDS011;39629;51.400;5.494;2023-09-30T02:11:38;8.73;;;3.03;;
47896;SDS011;39629;51.400;5.494;2023-09-30T02:16:41;7.45;;;3.55;;
47896;SDS011;39629;51.400;5.494;2023-09-30T02:21:43;6.43;;;3.17;;
47896;SDS011;39629;51.400;5.494;2023-09-30T02:26:48;9.98;;;3.42;;
47896;SDS011;39629;51.400;5.494;2023-09-30T02:31:50;6.90;;;3.45;;
47896;SDS011;39629;51.400;5.494;2023-09-30T02:36:55;6.38;;;2.92;;
47896;SDS011;39629;51.400;5.494;2023-09-30T02:41:58;7.00;;;3.03;;
47896;SDS011;39629;51.400;5.494;2023-09-30T02:47:02;7.32;;;3.70;;
47896;SDS011;39629;51.400;5.494;2023-09-30T02:52:05;6.97;;;2.75;;
47896;SDS011;39629;51.400;5.494;2023-09-30T02:57:09;4.22;;;2.08;;
47896;SDS011;39629;51.400;5.494;2023-09-30T03:02:12;2.58;;;1.60;;
47896;SDS011;39629;51.400;5.494;2023-09-30T03:07:17;5.63;;;2.58;;
47896;SDS011;39629;51.400;5.494;2023-09-30T03:12:22;5.47;;;2.90;;
47896;SDS011;39629;51.400;5.494;2023-09-30T03:17:26;7.28;;;2.90;;
47896;SDS011;39629;51.400;5.494;2023-09-30T03:22:29;4.57;;;2.55;;
47896;SDS011;39629;51.400;5.494;2023-09-30T03:27:32;4.53;;;2.30;;
47896;SDS011;39629;51.400;5.494;2023-09-30T03:32:34;7.50;;;3.05;;
47896;SDS011;39629;51.400;5.494;2023-09-30T03:37:38;7.63;;;3.37;;
47896;SDS011;39629;51.400;5.494;2023-09-30T03:42:43;8.27;;;3.67;;
47896;SDS011;39629;51.400;5.494;2023-09-30T03:47:45;7.82;;;3.00;;
47896;SDS011;39629;51.400;5.494;2023-09-30T03:52:48;8.45;;;3.55;;
47896;SDS011;39629;51.400;5.494;2023-09-30T03:57:52;10.07;;;3.85;;
47896;SDS011;39629;51.400;5.494;2023-09-30T04:02:54;9.40;;;4.30;;
47896;SDS011;39629;51.400;5.494;2023-09-30T04:13:02;7.68;;;3.35;;
47896;SDS011;39629;51.400;5.494;2023-09-30T04:18:05;10.57;;;3.73;;
47896;SDS011;39629;51.400;5.494;2023-09-30T04:23:07;8.52;;;3.80;;
47896;SDS011;39629;51.400;5.494;2023-09-30T04:28:12;8.40;;;3.63;;
47896;SDS011;39629;51.400;5.494;2023-09-30T04:33:16;4.30;;;2.30;;
47896;SDS011;39629;51.400;5.494;2023-09-30T04:38:19;6.95;;;2.60;;
47896;SDS011;39629;51.400;5.494;2023-09-30T04:43:23;4.55;;;1.83;;
47896;SDS011;39629;51.400;5.494;2023-09-30T04:48:30;6.72;;;2.10;;
47896;SDS011;39629;51.400;5.494;2023-09-30T04:53:32;4.35;;;2.10;;
47896;SDS011;39629;51.400;5.494;2023-09-30T04:58:36;4.95;;;2.47;;
47896;SDS011;39629;51.400;5.494;2023-09-30T05:03:38;4.73;;;2.50;;
47896;SDS011;39629;51.400;5.494;2023-09-30T05:08:40;7.07;;;2.50;;
47896;SDS011;39629;51.400;5.494;2023-09-30T05:13:44;4.97;;;2.53;;
47896;SDS011;39629;51.400;5.494;2023-09-30T05:18:46;7.55;;;3.38;;
47896;SDS011;39629;51.400;5.494;2023-09-30T05:23:49;6.50;;;2.85;;
47896;SDS011;39629;51.400;5.494;2023-09-30T05:28:52;7.40;;;3.50;;
47896;SDS011;39629;51.400;5.494;2023-09-30T05:33:54;6.97;;;3.60;;
47896;SDS011;39629;51.400;5.494;2023-09-30T05:38:57;6.68;;;3.08;;
47896;SDS011;39629;51.400;5.494;2023-09-30T05:44:00;6.13;;;2.75;;
47896;SDS011;39629;51.400;5.494;2023-09-30T05:49:01;3.33;;;1.90;;
47896;SDS011;39629;51.400;5.494;2023-09-30T05:54:09;4.00;;;2.15;;
47896;SDS011;39629;51.400;5.494;2023-09-30T05:59:13;5.93;;;2.40;;
47896;SDS011;39629;51.400;5.494;2023-09-30T06:04:14;5.65;;;2.50;;
47896;SDS011;39629;51.400;5.494;2023-09-30T06:09:16;7.70;;;2.75;;
47896;SDS011;39629;51.400;5.494;2023-09-30T06:14:19;4.60;;;2.17;;
47896;SDS011;39629;51.400;5.494;2023-09-30T06:19:21;5.35;;;2.47;;
47896;SDS011;39629;51.400;5.494;2023-09-30T06:24:22;6.25;;;2.75;;
47896;SDS011;39629;51.400;5.494;2023-09-30T06:29:25;3.67;;;1.85;;
47896;SDS011;39629;51.400;5.494;2023-09-30T06:34:27;6.45;;;2.83;;
47896;SDS011;39629;51.400;5.494;2023-09-30T06:39:29;8.43;;;3.35;;
47896;SDS011;39629;51.400;5.494;2023-09-30T06:44:32;6.68;;;2.78;;
47896;SDS011;39629;51.400;5.494;2023-09-30T06:49:33;5.38;;;2.60;;
47896;SDS011;39629;51.400;5.494;2023-09-30T06:54:35;5.82;;;3.08;;
47896;SDS011;39629;51.400;5.494;2023-09-30T06:59:38;8.80;;;4.05;;
47896;SDS011;39629;51.400;5.494;2023-09-30T07:04:40;11.07;;;4.60;;
47896;SDS011;39629;51.400;5.494;2023-09-30T07:09:42;13.90;;;5.63;;
47896;SDS011;39629;51.400;5.494;2023-09-30T07:14:46;13.98;;;6.25;;
47896;SDS011;39629;51.400;5.494;2023-09-30T07:19:48;14.25;;;6.35;;
47896;SDS011;39629;51.400;5.494;2023-09-30T07:24:50;14.07;;;6.28;;
47896;SDS011;39629;51.400;5.494;2023-09-30T07:29:53;16.48;;;7.05;;
47896;SDS011;39629;51.400;5.494;2023-09-30T07:34:55;15.55;;;6.70;;
47896;SDS011;39629;51.400;5.494;2023-09-30T07:39:56;20.30;;;6.57;;
47896;SDS011;39629;51.400;5.494;2023-09-30T07:44:59;15.85;;;6.22;;
47896;SDS011;39629;51.400;5.494;2023-09-30T07:50:01;13.55;;;5.47;;
47896;SDS011;39629;51.400;5.494;2023-09-30T07:55:06;13.07;;;5.30;;
47896;SDS011;39629;51.400;5.494;2023-09-30T08:00:11;15.20;;;5.10;;
47896;SDS011;39629;51.400;5.494;2023-09-30T08:05:16;15.35;;;4.75;;
47896;SDS011;39629;51.400;5.494;2023-09-30T08:10:17;13.95;;;4.80;;
47896;SDS011;39629;51.400;5.494;2023-09-30T08:15:20;13.27;;;3.97;;
47896;SDS011;39629;51.400;5.494;2023-09-30T08:20:22;12.80;;;4.30;;
47896;SDS011;39629;51.400;5.494;2023-09-30T08:25:23;15.18;;;4.88;;
47896;SDS011;39629;51.400;5.494;2023-09-30T08:30:26;11.77;;;4.32;;
47896;SDS011;39629;51.400;5.494;2023-09-30T08:35:28;12.73;;;4.27;;
47896;SDS011;39629;51.400;5.494;2023-09-30T08:40:30;14.35;;;3.72;;
47896;SDS011;39629;51.400;5.494;2023-09-30T08:45:33;11.63;;;3.72;;
47896;SDS011;39629;51.400;5.494;2023-09-30T08:50:40;10.77;;;3.83;;
47896;SDS011;39629;51.400;5.494;2023-09-30T08:55:43;13.07;;;4.00;;
47896;SDS011;39629;51.400;5.494;2023-09-30T09:05:54;10.75;;;4.07;;
47896;SDS011;39629;51.400;5.494;2023-09-30T09:10:57;10.80;;;3.70;;
47896;SDS011;39629;51.400;5.494;2023-09-30T09:16:08;13.32;;;3.97;;
47896;SDS011;39629;51.400;5.494;2023-09-30T09:21:11;10.25;;;3.85;;
47896;SDS011;39629;51.400;5.494;2023-09-30T09:26:22;10.53;;;4.23;;
47896;SDS011;39629;51.400;5.494;2023-09-30T09:31:27;8.30;;;4.05;;
47896;SDS011;39629;51.400;5.494;2023-09-30T09:36:37;8.70;;;3.72;;
47896;SDS011;39629;51.400;5.494;2023-09-30T09:41:50;9.02;;;3.58;;
47896;SDS011;39629;51.400;5.494;2023-09-30T09:46:54;9.20;;;3.53;;
47896;SDS011;39629;51.400;5.494;2023-09-30T09:51:56;8.77;;;3.58;;
47896;SDS011;39629;51.400;5.494;2023-09-30T09:56:58;7.43;;;2.80;;
47896;SDS011;39629;51.400;5.494;2023-09-30T10:02:04;6.72;;;2.40;;
47896;SDS011;39629;51.400;5.494;2023-09-30T10:07:12;9.48;;;3.20;;
47896;SDS011;39629;51.400;5.494;2023-09-30T10:12:17;6.05;;;2.00;;
47896;SDS011;39629;51.400;5.494;2023-09-30T10:17:23;5.53;;;2.38;;
47896;SDS011;39629;51.400;5.494;2023-09-30T10:44:54;7.47;;;2.45;;
47896;SDS011;39629;51.400;5.494;2023-09-30T10:49:56;5.95;;;2.00;;
47896;SDS011;39629;51.400;5.494;2023-09-30T10:55:02;5.97;;;2.20;;
47896;SDS011;39629;51.400;5.494;2023-09-30T11:00:07;7.03;;;1.92;;
47896;SDS011;39629;51.400;5.494;2023-09-30T11:05:12;6.80;;;1.73;;
47896;SDS011;39629;51.400;5.494;2023-09-30T11:10:15;4.15;;;1.90;;
47896;SDS011;39629;51.400;5.494;2023-09-30T11:15:17;5.57;;;1.77;;
47896;SDS011;39629;51.400;5.494;2023-09-30T11:20:20;5.75;;;1.92;;
47896;SDS011;39629;51.400;5.494;2023-09-30T11:25:22;4.45;;;1.67;;
47896;SDS011;39629;51.400;5.494;2023-09-30T11:30:25;4.88;;;1.60;;
47896;SDS011;39629;51.400;5.494;2023-09-30T11:35:28;4.85;;;1.80;;
47896;SDS011;39629;51.400;5.494;2023-09-30T11:45:31;4.72;;;1.52;;
47896;SDS011;39629;51.400;5.494;2023-09-30T11:50:46;4.20;;;1.60;;
47896;SDS011;39629;51.400;5.494;2023-09-30T11:55:48;4.43;;;1.73;;
47896;SDS011;39629;51.400;5.494;2023-09-30T12:00:52;8.52;;;1.55;;
47896;SDS011;39629;51.400;5.494;2023-09-30T12:05:57;4.65;;;1.83;;
47896;SDS011;39629;51.400;5.494;2023-09-30T12:11:00;5.10;;;1.40;;
47896;SDS011;39629;51.400;5.494;2023-09-30T12:16:02;4.88;;;1.20;;
47896;SDS011;39629;51.400;5.494;2023-09-30T12:21:05;4.10;;;1.55;;
47896;SDS011;39629;51.400;5.494;2023-09-30T12:26:08;3.78;;;1.45;;
47896;SDS011;39629;51.400;5.494;2023-09-30T12:31:09;3.97;;;1.30;;
47896;SDS011;39629;51.400;5.494;2023-09-30T12:36:12;4.28;;;1.60;;
47896;SDS011;39629;51.400;5.494;2023-09-30T12:41:14;3.65;;;1.30;;
47896;SDS011;39629;51.400;5.494;2023-09-30T12:46:16;4.75;;;1.50;;
47896;SDS011;39629;51.400;5.494;2023-09-30T12:51:19;4.27;;;1.40;;
47896;SDS011;39629;51.400;5.494;2023-09-30T13:01:22;3.58;;;1.42;;
47896;SDS011;39629;51.400;5.494;2023-09-30T13:06:26;4.05;;;1.40;;
47896;SDS011;39629;51.400;5.494;2023-09-30T13:11:29;4.00;;;1.30;;
47896;SDS011;39629;51.400;5.494;2023-09-30T13:16:30;4.82;;;1.83;;
47896;SDS011;39629;51.400;5.494;2023-09-30T13:21:33;4.28;;;1.60;;
47896;SDS011;39629;51.400;5.494;2023-09-30T13:26:35;4.47;;;1.50;;
47896;SDS011;39629;51.400;5.494;2023-09-30T13:31:36;5.93;;;1.77;;
47896;SDS011;39629;51.400;5.494;2023-09-30T13:36:40;3.72;;;1.55;;
47896;SDS011;39629;51.400;5.494;2023-09-30T13:41:41;6.75;;;1.50;;
47896;SDS011;39629;51.400;5.494;2023-09-30T13:46:43;3.88;;;1.50;;
47896;SDS011;39629;51.400;5.494;2023-09-30T13:51:46;5.57;;;1.60;;
47896;SDS011;39629;51.400;5.494;2023-09-30T13:56:48;3.13;;;1.40;;
47896;SDS011;39629;51.400;5.494;2023-09-30T14:01:50;5.03;;;1.52;;
47896;SDS011;39629;51.400;5.494;2023-09-30T14:06:53;4.53;;;1.80;;
47896;SDS011;39629;51.400;5.494;2023-09-30T14:11:54;5.57;;;2.33;;
47896;SDS011;39629;51.400;5.494;2023-09-30T14:16:58;5.20;;;1.90;;
47896;SDS011;39629;51.400;5.494;2023-09-30T14:22:01;5.03;;;2.05;;
47896;SDS011;39629;51.400;5.494;2023-09-30T14:27:04;4.30;;;2.30;;
47896;SDS011;39629;51.400;5.494;2023-09-30T14:32:06;4.07;;;2.00;;
47896;SDS011;39629;51.400;5.494;2023-09-30T14:37:09;5.50;;;2.00;;
47896;SDS011;39629;51.400;5.494;2023-09-30T14:42:11;4.53;;;1.90;;
47896;SDS011;39629;51.400;5.494;2023-09-30T14:47:12;5.18;;;2.28;;
47896;SDS011;39629;51.400;5.494;2023-09-30T14:52:16;3.45;;;1.83;;
47896;SDS011;39629;51.400;5.494;2023-09-30T14:57:18;4.60;;;2.17;;
47896;SDS011;39629;51.400;5.494;2023-09-30T15:02:21;4.28;;;2.03;;
47896;SDS011;39629;51.400;5.494;2023-09-30T15:07:24;3.93;;;1.90;;
47896;SDS011;39629;51.400;5.494;2023-09-30T15:12:26;4.93;;;1.95;;
47896;SDS011;39629;51.400;5.494;2023-09-30T15:17:28;4.78;;;2.13;;
47896;SDS011;39629;51.400;5.494;2023-09-30T15:22:32;4.93;;;1.90;;
47896;SDS011;39629;51.400;5.494;2023-09-30T15:27:34;6.13;;;1.80;;
47896;SDS011;39629;51.400;5.494;2023-09-30T15:32:36;4.15;;;2.03;;
47896;SDS011;39629;51.400;5.494;2023-09-30T15:37:41;3.70;;;1.85;;
47896;SDS011;39629;51.400;5.494;2023-09-30T15:42:42;5.57;;;2.00;;
47896;SDS011;39629;51.400;5.494;2023-09-30T15:47:45;4.75;;;2.08;;
47896;SDS011;39629;51.400;5.494;2023-09-30T15:52:48;5.78;;;2.00;;
47896;SDS011;39629;51.400;5.494;2023-09-30T15:57:49;3.50;;;1.80;;
47896;SDS011;39629;51.400;5.494;2023-09-30T16:02:51;4.65;;;2.17;;
47896;SDS011;39629;51.400;5.494;2023-09-30T16:07:55;5.20;;;2.00;;
47896;SDS011;39629;51.400;5.494;2023-09-30T16:12:56;7.00;;;2.30;;
47896;SDS011;39629;51.400;5.494;2023-09-30T16:17:58;5.10;;;2.05;;
47896;SDS011;39629;51.400;5.494;2023-09-30T16:23:01;6.68;;;2.17;;
47896;SDS011;39629;51.400;5.494;2023-09-30T16:28:03;4.37;;;2.20;;
47896;SDS011;39629;51.400;5.494;2023-09-30T16:33:05;5.85;;;2.20;;
47896;SDS011;39629;51.400;5.494;2023-09-30T16:38:08;3.78;;;1.90;;
47896;SDS011;39629;51.400;5.494;2023-09-30T16:43:09;4.07;;;1.90;;
47896;SDS011;39629;51.400;5.494;2023-09-30T16:48:11;6.47;;;1.90;;
47896;SDS011;39629;51.400;5.494;2023-09-30T16:53:14;5.38;;;2.50;;
47896;SDS011;39629;51.400;5.494;2023-09-30T16:58:17;4.55;;;2.28;;
47896;SDS011;39629;51.400;5.494;2023-09-30T17:03:18;5.18;;;2.40;;
47896;SDS011;39629;51.400;5.494;2023-09-30T17:08:21;4.63;;;2.20;;
47896;SDS011;39629;51.400;5.494;2023-09-30T17:13:23;5.90;;;2.40;;
47896;SDS011;39629;51.400;5.494;2023-09-30T17:18:25;5.63;;;2.30;;
47896;SDS011;39629;51.400;5.494;2023-09-30T17:23:28;4.90;;;2.40;;
47896;SDS011;39629;51.400;5.494;2023-09-30T17:28:29;5.43;;;2.00;;
47896;SDS011;39629;51.400;5.494;2023-09-30T17:33:31;5.55;;;2.10;;
47896;SDS011;39629;51.400;5.494;2023-09-30T17:38:34;4.82;;;2.00;;
47896;SDS011;39629;51.400;5.494;2023-09-30T17:48:39;5.25;;;2.22;;
47896;SDS011;39629;51.400;5.494;2023-09-30T17:53:43;3.85;;;1.98;;
47896;SDS011;39629;51.400;5.494;2023-09-30T17:58:44;4.03;;;2.03;;
47896;SDS011;39629;51.400;5.494;2023-09-30T18:03:46;5.32;;;2.35;;
47896;SDS011;39629;51.400;5.494;2023-09-30T18:08:49;6.13;;;2.15;;
47896;SDS011;39629;51.400;5.494;2023-09-30T18:13:51;4.13;;;1.90;;
47896;SDS011;39629;51.400;5.494;2023-09-30T18:18:52;4.28;;;1.90;;
47896;SDS011;39629;51.400;5.494;2023-09-30T18:23:55;4.45;;;2.00;;
47896;SDS011;39629;51.400;5.494;2023-09-30T18:28:57;7.35;;;2.30;;
47896;SDS011;39629;51.400;5.494;2023-09-30T18:33:58;4.38;;;1.90;;
47896;SDS011;39629;51.400;5.494;2023-09-30T18:39:01;7.78;;;2.10;;
47896;SDS011;39629;51.400;5.494;2023-09-30T18:44:03;6.85;;;2.60;;
47896;SDS011;39629;51.400;5.494;2023-09-30T18:49:05;5.50;;;2.42;;
47896;SDS011;39629;51.400;5.494;2023-09-30T18:54:09;5.38;;;2.58;;
47896;SDS011;39629;51.400;5.494;2023-09-30T18:59:10;4.68;;;1.85;;
47896;SDS011;39629;51.400;5.494;2023-09-30T19:04:18;6.72;;;3.00;;
47896;SDS011;39629;51.400;5.494;2023-09-30T19:09:21;6.22;;;2.80;;
47896;SDS011;39629;51.400;5.494;2023-09-30T19:14:23;5.53;;;2.45;;
47896;SDS011;39629;51.400;5.494;2023-09-30T19:19:24;5.63;;;2.20;;
47896;SDS011;39629;51.400;5.494;2023-09-30T19:24:27;4.82;;;2.58;;
47896;SDS011;39629;51.400;5.494;2023-09-30T19:29:29;5.63;;;2.97;;
47896;SDS011;39629;51.400;5.494;2023-09-30T19:34:31;5.07;;;2.63;;
47896;SDS011;39629;51.400;5.494;2023-09-30T19:39:34;7.18;;;2.97;;
47896;SDS011;39629;51.400;5.494;2023-09-30T19:44:36;5.63;;;2.55;;
47896;SDS011;39629;51.400;5.494;2023-09-30T19:49:39;4.78;;;2.58;;
47896;SDS011;39629;51.400;5.494;2023-09-30T19:54:42;5.68;;;2.88;;
47896;SDS011;39629;51.400;5.494;2023-09-30T19:59:43;5.57;;;2.58;;
47896;SDS011;39629;51.400;5.494;2023-09-30T20:04:45;4.47;;;2.20;;
47896;SDS011;39629;51.400;5.494;2023-09-30T20:09:47;2.28;;;1.55;;
47896;SDS011;39629;51.400;5.494;2023-09-30T20:14:51;6.13;;;2.30;;
47896;SDS011;39629;51.400;5.494;2023-09-30T20:19:52;4.93;;;2.55;;
47896;SDS011;39629;51.400;5.494;2023-09-30T20:24:56;6.65;;;2.72;;
47896;SDS011;39629;51.400;5.494;2023-09-30T20:29:59;3.85;;;2.13;;
47896;SDS011;39629;51.400;5.494;2023-09-30T20:35:01;6.00;;;2.10;;
47896;SDS011;39629;51.400;5.494;2023-09-30T20:40:06;3.20;;;2.03;;
47896;SDS011;39629;51.400;5.494;2023-09-30T20:45:11;3.33;;;1.70;;
47896;SDS011;39629;51.400;5.494;2023-09-30T20:50:14;5.72;;;2.25;;
47896;SDS011;39629;51.400;5.494;2023-09-30T20:55:17;4.80;;;2.05;;
47896;SDS011;39629;51.400;5.494;2023-09-30T21:00:19;3.90;;;1.50;;
47896;SDS011;39629;51.400;5.494;2023-09-30T21:05:20;4.40;;;2.08;;
47896;SDS011;39629;51.400;5.494;2023-09-30T21:10:23;4.07;;;2.20;;
47896;SDS011;39629;51.400;5.494;2023-09-30T21:15:25;4.05;;;2.13;;
47896;SDS011;39629;51.400;5.494;2023-09-30T21:20:27;5.35;;;2.70;;
47896;SDS011;39629;51.400;5.494;2023-09-30T21:25:30;6.63;;;3.00;;
47896;SDS011;39629;51.400;5.494;2023-09-30T21:30:31;4.72;;;2.63;;
47896;SDS011;39629;51.400;5.494;2023-09-30T21:35:34;4.88;;;2.50;;
47896;SDS011;39629;51.400;5.494;2023-09-30T21:40:37;6.60;;;2.63;;
47896;SDS011;39629;51.400;5.494;2023-09-30T21:45:38;6.05;;;2.55;;
47896;SDS011;39629;51.400;5.494;2023-09-30T21:50:40;3.85;;;2.25;;
47896;SDS011;39629;51.400;5.494;2023-09-30T21:55:43;4.82;;;2.60;;
47896;SDS011;39629;51.400;5.494;2023-09-30T22:00:44;6.10;;;2.83;;
47896;SDS011;39629;51.400;5.494;2023-09-30T22:05:48;10.35;;;3.50;;
47896;SDS011;39629;51.400;5.494;2023-09-30T22:10:53;6.10;;;2.83;;
47896;SDS011;39629;51.400;5.494;2023-09-30T22:15:55;6.93;;;3.35;;
47896;SDS011;39629;51.400;5.494;2023-09-30T22:20:57;6.53;;;3.10;;
47896;SDS011;39629;51.400;5.494;2023-09-30T22:26:00;5.38;;;2.85;;
47896;SDS011;39629;51.400;5.494;2023-09-30T22:31:03;6.47;;;3.33;;
47896;SDS011;39629;51.400;5.494;2023-09-30T22:36:05;7.25;;;3.03;;
47896;SDS011;39629;51.400;5.494;2023-09-30T22:41:09;8.65;;;3.13;;
47896;SDS011;39629;51.400;5.494;2023-09-30T22:46:11;7.00;;;3.23;;
47896;SDS011;39629;51.400;5.494;2023-09-30T22:51:13;8.60;;;3.10;;
47896;SDS011;39629;51.400;5.494;2023-09-30T22:56:16;6.85;;;3.25;;
47896;SDS011;39629;51.400;5.494;2023-09-30T23:01:21;7.32;;;2.75;;
47896;SDS011;39629;51.400;5.494;2023-09-30T23:06:23;5.20;;;2.42;;
47896;SDS011;39629;51.400;5.494;2023-09-30T23:11:26;5.93;;;2.50;;
47896;SDS011;39629;51.400;5.494;2023-09-30T23:16:28;5.50;;;2.30;;
47896;SDS011;39629;51.400;5.494;2023-09-30T23:21:30;4.85;;;2.67;;
47896;SDS011;39629;51.400;5.494;2023-09-30T23:26:33;5.72;;;2.60;;
47896;SDS011;39629;51.400;5.494;2023-09-30T23:31:36;5.47;;;3.13;;
47896;SDS011;39629;51.400;5.494;2023-09-30T23:36:41;6.45;;;3.30;;
47896;SDS011;39629;51.400;5.494;2023-09-30T23:41:46;7.07;;;3.07;;
47896;SDS011;39629;51.400;5.494;2023-09-30T23:46:49;6.63;;;3.30;;
47896;SDS011;39629;51.400;5.494;2023-09-30T23:51:52;7.07;;;3.60;;
47896;SDS011;39629;51.400;5.494;2023-09-30T23:56:56;7.13;;;3.67;;
